Time;durP1;ratioP1;P1;durP2;ratioP2;P2;SDS_P1;SDS_P2;PMS_P1;PMS_P2;Temp;Humidity;BMP_temperature;BMP_pressure;BME280_temperature;BME280_humidity;BME280_pressure;Samples;Min_cycle;Max_cycle;Signal;HPM_P1;HPM_P2
2021/12/12 00:00:12;;;;;;;34.20;19.90;;;;;;;-1.12;91.72;97050.05;107497;1287;32217;-77
2021/12/12 00:03:10;;;;;;;36.50;20.00;;;;;;;-1.09;91.64;97062.32;107460;1287;39444;-77
2021/12/12 00:05:42;;;;;;;28.20;16.20;;;;;;;-1.07;91.22;97061.92;107411;1286;42221;-77
2021/12/12 00:08:12;;;;;;;35.40;20.90;;;;;;;-1.08;91.31;97069.12;107561;1287;46015;-77
2021/12/12 00:10:45;;;;;;;37.10;22.50;;;;;;;-1.10;90.94;97066.20;107613;1287;38087;-77
2021/12/12 00:13:17;;;;;;;38.20;21.70;;;;;;;-1.12;91.04;97068.83;107484;1287;44646;-76
2021/12/12 00:15:46;;;;;;;39.20;21.90;;;;;;;-1.12;91.29;97070.09;107445;1287;41073;-76
2021/12/12 00:18:15;;;;;;;37.00;20.50;;;;;;;-1.13;91.06;97069.80;107552;1285;33002;-76
2021/12/12 00:20:49;;;;;;;38.50;21.70;;;;;;;-1.13;91.08;97072.05;107594;1287;37405;-76
2021/12/12 00:23:19;;;;;;;38.60;22.00;;;;;;;-1.13;90.87;97074.16;107551;1287;63383;-76
2021/12/12 00:25:50;;;;;;;36.90;22.00;;;;;;;-1.14;90.78;97073.00;107590;1286;42024;-76
2021/12/12 00:28:21;;;;;;;39.20;22.90;;;;;;;-1.15;90.89;97077.72;107577;1287;39288;-76
2021/12/12 00:30:53;;;;;;;32.70;21.70;;;;;;;-1.17;91.00;97085.23;107583;1286;34408;-76
2021/12/12 00:33:22;;;;;;;39.40;23.70;;;;;;;-1.19;90.47;97087.39;107497;1287;60876;-76
2021/12/12 00:35:52;;;;;;;32.90;17.40;;;;;;;-1.21;90.52;97082.02;107520;1287;33024;-76
2021/12/12 00:38:25;;;;;;;42.40;23.20;;;;;;;-1.22;90.83;97080.98;107459;1287;45053;-76
2021/12/12 00:40:57;;;;;;;35.10;21.20;;;;;;;-1.23;90.60;97086.27;107596;1287;31580;-76
2021/12/12 00:43:29;;;;;;;38.70;19.30;;;;;;;-1.23;90.46;97087.86;107543;1287;42289;-76
2021/12/12 00:46:05;;;;;;;42.90;23.20;;;;;;;-1.24;90.23;97089.17;107504;1287;38194;-76
2021/12/12 00:48:36;;;;;;;38.00;23.60;;;;;;;-1.26;90.31;97091.29;107548;1285;30354;-76
2021/12/12 00:51:10;;;;;;;35.00;21.30;;;;;;;-1.26;90.45;97091.33;107520;1286;37867;-76
2021/12/12 00:53:40;;;;;;;37.20;20.60;;;;;;;-1.24;90.47;97093.70;107446;1287;43365;-76
2021/12/12 00:56:10;;;;;;;39.90;22.40;;;;;;;-1.22;90.28;97095.51;107515;1286;35107;-76
2021/12/12 00:58:39;;;;;;;47.60;25.00;;;;;;;-1.21;90.30;97097.84;107483;1286;45457;-76
2021/12/12 01:01:12;;;;;;;42.80;25.20;;;;;;;-1.22;90.58;97105.91;107499;1287;31622;-76
2021/12/12 01:03:46;;;;;;;36.90;21.30;;;;;;;-1.22;90.09;97111.19;107491;1286;45431;-76
2021/12/12 01:06:16;;;;;;;38.30;22.80;;;;;;;-1.22;90.15;97107.88;107504;1285;41318;-76
2021/12/12 01:08:50;;;;;;;40.30;22.30;;;;;;;-1.21;90.17;97104.08;107476;1287;47730;-76
2021/12/12 01:11:28;;;;;;;33.20;18.70;;;;;;;-1.20;90.21;97104.13;107499;1286;38776;-76
2021/12/12 01:13:57;;;;;;;49.00;28.20;;;;;;;-1.21;89.95;97110.00;107514;1287;53130;-76
2021/12/12 01:16:33;;;;;;;47.60;23.90;;;;;;;-1.24;90.36;97110.39;107565;1287;31787;-77
2021/12/12 01:19:07;;;;;;;45.80;27.30;;;;;;;-1.28;90.06;97116.90;107492;1287;35845;-77
2021/12/12 01:21:41;;;;;;;53.60;32.50;;;;;;;-1.30;89.98;97112.97;107493;1287;31946;-77
2021/12/12 01:24:13;;;;;;;57.70;33.90;;;;;;;-1.32;90.32;97110.16;107498;1286;44003;-77
2021/12/12 01:26:42;;;;;;;49.20;28.50;;;;;;;-1.34;90.01;97111.71;107524;1287;37075;-76
2021/12/12 01:29:11;;;;;;;45.30;27.30;;;;;;;-1.33;90.28;97116.52;107481;1286;38355;-77
2021/12/12 01:31:47;;;;;;;48.70;27.80;;;;;;;-1.31;90.22;97115.16;107482;1287;60747;-76
2021/12/12 01:34:20;;;;;;;43.90;23.80;;;;;;;-1.30;90.29;97115.17;107535;1287;37314;-76
2021/12/12 01:37:06;;;;;;;48.10;27.90;;;;;;;-1.32;90.12;97108.56;107631;1285;37552;-76
2021/12/12 01:39:40;;;;;;;46.00;27.80;;;;;;;-1.36;90.05;97112.59;107459;1287;41523;-77
2021/12/12 01:42:15;;;;;;;46.90;27.80;;;;;;;-1.37;90.21;97114.77;107480;1287;33505;-77
2021/12/12 01:44:49;;;;;;;42.70;25.20;;;;;;;-1.36;90.35;97113.55;107490;1287;48122;-77
2021/12/12 01:47:23;;;;;;;48.90;27.20;;;;;;;-1.36;90.01;97106.83;107506;1287;29619;-77
2021/12/12 01:49:56;;;;;;;39.30;24.70;;;;;;;-1.38;89.77;97114.34;107472;1287;56104;-77
2021/12/12 01:52:27;;;;;;;40.70;24.80;;;;;;;-1.37;89.40;97121.55;107562;1286;34060;-77
2021/12/12 01:55:00;;;;;;;42.00;23.90;;;;;;;-1.35;89.64;97126.27;107619;1287;37993;-76
2021/12/12 01:57:33;;;;;;;39.60;25.20;;;;;;;-1.34;89.36;97123.08;107575;1287;46211;-77
2021/12/12 02:00:10;;;;;;;38.00;22.30;;;;;;;-1.37;89.35;97129.55;107581;1287;38488;-77
2021/12/12 02:02:39;;;;;;;45.80;24.80;;;;;;;-1.37;89.18;97131.63;107517;1286;43303;-77
2021/12/12 02:05:13;;;;;;;43.50;25.40;;;;;;;-1.36;89.18;97125.95;107529;1286;32938;-77
2021/12/12 02:07:45;;;;;;;50.00;29.40;;;;;;;-1.37;89.48;97126.67;107516;1285;47289;-77
2021/12/12 02:10:20;;;;;;;43.00;26.70;;;;;;;-1.38;89.46;97130.63;107577;1286;39893;-77
2021/12/12 02:12:49;;;;;;;37.50;22.00;;;;;;;-1.39;89.00;97123.88;107464;1287;43107;-77
2021/12/12 02:15:19;;;;;;;44.10;26.40;;;;;;;-1.44;88.41;97121.48;107444;1287;38575;-77
2021/12/12 02:17:50;;;;;;;42.30;25.40;;;;;;;-1.47;88.61;97121.55;107492;1287;47172;-77
2021/12/12 02:20:32;;;;;;;47.30;28.40;;;;;;;-1.46;88.66;97126.66;107559;1287;47756;-77
2021/12/12 02:23:10;;;;;;;54.30;31.80;;;;;;;-1.48;89.08;97126.34;107569;1285;33256;-77
2021/12/12 02:36:57;;;;;;;56.70;32.10;;;;;;;-1.53;89.88;97140.08;107555;1287;73617;-76
2021/12/12 02:39:26;;;;;;;52.30;31.40;;;;;;;-1.52;89.86;97133.84;107620;1287;31733;-77
2021/12/12 02:42:00;;;;;;;48.30;28.50;;;;;;;-1.51;90.05;97134.52;107503;1286;37417;-77
2021/12/12 02:44:36;;;;;;;51.70;28.80;;;;;;;-1.50;89.76;97136.77;107508;1287;45853;-77
2021/12/12 02:47:11;;;;;;;41.30;24.90;;;;;;;-1.48;89.79;97135.10;107507;1287;35410;-77
2021/12/12 02:49:55;;;;;;;40.20;24.80;;;;;;;-1.46;89.50;97133.11;107473;1287;43415;-77
2021/12/12 02:52:28;;;;;;;45.20;26.30;;;;;;;-1.46;89.50;97134.95;107595;1287;40262;-77
2021/12/12 02:55:01;;;;;;;40.10;25.70;;;;;;;-1.45;89.11;97144.40;107616;1286;33071;-77
2021/12/12 02:57:30;;;;;;;48.10;27.20;;;;;;;-1.47;89.11;97149.46;107515;1287;45739;-77
2021/12/12 02:59:59;;;;;;;50.30;29.40;;;;;;;-1.50;88.96;97145.70;107526;1287;37369;-77
2021/12/12 03:02:39;;;;;;;50.80;29.10;;;;;;;-1.52;89.36;97144.80;107611;1286;31918;-77
2021/12/12 03:05:08;;;;;;;35.70;21.30;;;;;;;-1.52;88.89;97146.77;107435;1285;66050;-77
2021/12/12 03:07:37;;;;;;;39.30;22.50;;;;;;;-1.49;88.54;97147.86;107498;1286;33061;-76
2021/12/12 03:10:10;;;;;;;35.30;20.80;;;;;;;-1.47;88.46;97151.59;107434;1287;39518;-76
2021/12/12 03:12:40;;;;;;;31.10;20.30;;;;;;;-1.46;88.05;97152.07;107515;1286;35919;-76
2021/12/12 03:15:13;;;;;;;31.70;19.40;;;;;;;-1.44;87.96;97156.33;107452;1286;52219;-76
2021/12/12 03:17:45;;;;;;;32.60;21.30;;;;;;;-1.44;87.59;97152.04;107452;1287;48887;-76
2021/12/12 03:20:24;;;;;;;34.10;19.60;;;;;;;-1.43;87.55;97163.92;107503;1286;36132;-76
2021/12/12 03:22:56;;;;;;;28.60;17.30;;;;;;;-1.44;87.54;97162.60;107610;1287;43512;-76
2021/12/12 03:25:26;;;;;;;46.80;27.00;;;;;;;-1.42;87.35;97164.21;107582;1287;42366;-76
2021/12/12 03:27:55;;;;;;;51.00;30.10;;;;;;;-1.44;87.97;97165.00;107617;1286;43165;-76
2021/12/12 03:30:25;;;;;;;45.30;28.00;;;;;;;-1.46;87.98;97166.64;107552;1285;41916;-76
2021/12/12 03:32:56;;;;;;;51.00;30.50;;;;;;;-1.48;88.24;97164.83;107611;1286;32322;-76
2021/12/12 03:35:26;;;;;;;50.10;30.20;;;;;;;-1.53;88.27;97165.92;107578;1285;35862;-76
2021/12/12 03:37:55;;;;;;;50.80;28.80;;;;;;;-1.55;88.39;97164.64;107534;1285;32164;-76
2021/12/12 03:40:33;;;;;;;45.10;26.90;;;;;;;-1.54;88.45;97168.05;107599;1287;47930;-76
2021/12/12 03:43:03;;;;;;;48.50;28.70;;;;;;;-1.53;88.59;97167.19;107551;1285;36483;-76
2021/12/12 03:45:33;;;;;;;56.10;31.50;;;;;;;-1.54;88.61;97169.05;107513;1287;37962;-77
2021/12/12 03:48:06;;;;;;;52.90;29.20;;;;;;;-1.57;88.59;97166.98;107474;1287;39584;-77
2021/12/12 03:50:37;;;;;;;45.50;27.10;;;;;;;-1.57;88.73;97165.39;107559;1285;36621;-77
2021/12/12 03:53:07;;;;;;;33.80;21.10;;;;;;;-1.55;88.71;97170.59;107562;1286;41420;-77
2021/12/12 03:55:36;;;;;;;29.60;17.90;;;;;;;-1.55;88.43;97172.83;107551;1287;39752;-77
2021/12/12 03:58:07;;;;;;;26.40;15.50;;;;;;;-1.54;88.10;97174.87;107560;1286;42839;-77
2021/12/12 04:00:42;;;;;;;22.40;13.90;;;;;;;-1.51;87.88;97180.29;107608;1282;41448;-77
2021/12/12 04:03:14;;;;;;;25.70;15.30;;;;;;;-1.49;87.49;97184.70;107583;1286;35713;-76
2021/12/12 04:05:48;;;;;;;24.60;13.60;;;;;;;-1.47;87.11;97186.46;107591;1286;28228;-76
2021/12/12 04:08:16;;;;;;;24.20;14.20;;;;;;;-1.44;87.10;97188.85;107527;1286;52955;-76
2021/12/12 04:10:45;;;;;;;27.60;15.40;;;;;;;-1.43;87.01;97198.33;107562;1287;49126;-77
2021/12/12 04:13:15;;;;;;;29.00;15.60;;;;;;;-1.44;86.57;97195.20;107528;1287;31454;-77
2021/12/12 04:15:43;;;;;;;25.40;14.60;;;;;;;-1.45;86.59;97201.52;107488;1287;46107;-76
2021/12/12 04:18:12;;;;;;;25.60;13.90;;;;;;;-1.45;86.56;97202.45;107527;1287;39109;-76
2021/12/12 04:20:41;;;;;;;27.60;15.30;;;;;;;-1.44;86.32;97202.80;107445;1287;45166;-77
2021/12/12 04:23:17;;;;;;;28.00;15.40;;;;;;;-1.44;86.45;97203.85;107547;1287;42953;-76
2021/12/12 04:25:46;;;;;;;26.60;14.70;;;;;;;-1.43;86.55;97205.30;107571;1287;40106;-76
2021/12/12 04:28:15;;;;;;;23.40;14.20;;;;;;;-1.45;86.36;97201.91;107562;1285;42598;-76
2021/12/12 04:30:44;;;;;;;27.30;15.90;;;;;;;-1.47;86.22;97202.52;107507;1287;64086;-77
2021/12/12 04:33:14;;;;;;;27.10;14.50;;;;;;;-1.49;86.14;97198.73;107528;1286;62516;-76
2021/12/12 04:35:45;;;;;;;19.80;10.70;;;;;;;-1.49;86.21;97198.45;107485;1287;38652;-76
2021/12/12 04:38:14;;;;;;;26.30;15.40;;;;;;;-1.48;86.27;97201.79;107504;1287;46061;-77
2021/12/12 04:40:43;;;;;;;29.20;16.50;;;;;;;-1.49;86.27;97200.54;107496;1287;45053;-77
2021/12/12 04:43:11;;;;;;;24.40;13.00;;;;;;;-1.51;86.48;97202.33;107478;1287;53477;-77
2021/12/12 04:46:03;;;;;;;29.10;16.70;;;;;;;-1.53;86.25;97210.99;107490;1286;50816;-77
2021/12/12 04:51:34;;;;;;;22.40;13.40;;;;;;;-1.55;86.33;97217.67;107572;1287;36171;-76
2021/12/12 04:54:09;;;;;;;30.70;17.10;;;;;;;-1.56;86.35;97217.42;107483;1287;52505;-77
2021/12/12 04:56:45;;;;;;;27.90;17.30;;;;;;;-1.57;86.43;97221.09;107540;1287;35996;-77
2021/12/12 04:59:21;;;;;;;27.90;16.80;;;;;;;-1.58;86.31;97220.68;107527;1286;37103;-77
2021/12/12 05:02:00;;;;;;;31.10;17.60;;;;;;;-1.60;86.51;97225.23;107494;1286;49397;-77
2021/12/12 05:04:37;;;;;;;37.20;18.70;;;;;;;-1.63;86.34;97225.93;107552;1283;42987;-76
2021/12/12 05:07:12;;;;;;;33.70;20.30;;;;;;;-1.65;86.18;97228.91;107648;1287;33951;-77
2021/12/12 05:09:50;;;;;;;32.70;15.00;;;;;;;-1.65;86.14;97237.31;107531;1287;38995;-77
2021/12/12 05:12:26;;;;;;;31.40;19.10;;;;;;;-1.65;85.90;97241.52;107519;1286;46688;-77
2021/12/12 05:15:03;;;;;;;31.80;18.50;;;;;;;-1.65;86.03;97246.70;107577;1285;44299;-77
2021/12/12 05:17:37;;;;;;;31.00;17.20;;;;;;;-1.66;85.96;97249.27;107527;1286;31537;-77
2021/12/12 05:20:11;;;;;;;35.90;19.80;;;;;;;-1.67;85.93;97255.41;107504;1286;45164;-77
2021/12/12 05:22:43;;;;;;;32.70;19.20;;;;;;;-1.67;86.14;97264.09;107463;1287;37837;-77
2021/12/12 05:25:18;;;;;;;35.90;19.60;;;;;;;-1.67;86.01;97266.71;107567;1286;36668;-77
2021/12/12 05:27:52;;;;;;;34.30;19.90;;;;;;;-1.68;86.08;97266.30;107598;1287;38957;-77
2021/12/12 05:30:26;;;;;;;34.50;20.80;;;;;;;-1.69;85.99;97268.42;107597;1286;50551;-77
2021/12/12 05:32:59;;;;;;;32.90;19.60;;;;;;;-1.69;85.82;97268.30;107623;1286;38610;-77
2021/12/12 05:35:32;;;;;;;38.20;19.90;;;;;;;-1.69;85.85;97273.52;107615;1286;49293;-77
2021/12/12 05:38:01;;;;;;;30.40;19.10;;;;;;;-1.69;86.23;97278.33;107573;1286;77018;-77
2021/12/12 05:40:34;;;;;;;29.80;18.10;;;;;;;-1.69;85.93;97284.57;107555;1285;43391;-77
2021/12/12 05:43:04;;;;;;;30.60;17.70;;;;;;;-1.70;85.85;97287.95;107560;1286;39226;-77
2021/12/12 05:45:35;;;;;;;31.70;18.10;;;;;;;-1.71;85.83;97291.18;107591;1286;42644;-76
2021/12/12 05:48:06;;;;;;;37.00;19.00;;;;;;;-1.70;85.90;97291.66;107568;1287;33225;-76
2021/12/12 05:50:36;;;;;;;33.00;18.10;;;;;;;-1.70;85.67;97289.39;107612;1286;51963;-76
2021/12/12 05:53:05;;;;;;;29.20;17.50;;;;;;;-1.69;85.62;97291.88;107647;1287;31389;-76
2021/12/12 05:55:37;;;;;;;31.00;16.20;;;;;;;-1.68;85.28;97298.52;107570;1287;35928;-77
2021/12/12 05:58:13;;;;;;;32.70;18.90;;;;;;;-1.68;85.42;97305.07;107529;1286;42041;-76
2021/12/12 06:00:45;;;;;;;26.60;17.00;;;;;;;-1.68;85.45;97307.70;107557;1287;68969;-76
2021/12/12 06:03:17;;;;;;;33.10;16.60;;;;;;;-1.69;85.45;97308.45;107598;1286;39368;-76
2021/12/12 06:05:46;;;;;;;31.60;16.60;;;;;;;-1.67;85.47;97314.00;107579;1286;32206;-76
2021/12/12 06:08:15;;;;;;;24.70;13.60;;;;;;;-1.66;85.11;97319.17;107531;1287;56487;-76
2021/12/12 06:10:45;;;;;;;22.10;13.20;;;;;;;-1.63;84.75;97320.08;107614;1286;40951;-76
2021/12/12 06:13:17;;;;;;;27.40;14.90;;;;;;;-1.62;84.72;97320.05;107608;1287;36832;-76
2021/12/12 06:15:50;;;;;;;23.20;12.50;;;;;;;-1.60;84.77;97317.30;107578;1285;35301;-76
2021/12/12 06:18:20;;;;;;;24.60;12.80;;;;;;;-1.59;84.87;97317.70;107499;1286;54416;-76
2021/12/12 06:20:48;;;;;;;;;;;;;;;-1.59;84.63;97316.42;107592;1286;36878;-76
2021/12/12 06:23:18;;;;;;;17.10;10.00;;;;;;;-1.58;84.70;97318.73;107525;1285;53968;-76
2021/12/12 06:25:48;;;;;;;22.20;11.20;;;;;;;-1.56;84.60;97318.33;107552;1287;47907;-76
2021/12/12 06:28:22;;;;;;;22.10;11.50;;;;;;;-1.55;84.66;97317.15;107620;1287;31417;-76
2021/12/12 06:30:51;;;;;;;15.10;9.30;;;;;;;-1.54;84.31;97314.30;107545;1287;53020;-76
2021/12/12 06:33:20;;;;;;;19.40;10.20;;;;;;;-1.54;84.30;97314.75;107522;1285;46286;-76
2021/12/12 06:35:50;;;;;;;12.90;7.20;;;;;;;-1.52;84.39;97312.84;107531;1286;54361;-76
2021/12/12 06:38:19;;;;;;;18.60;10.80;;;;;;;-1.51;83.85;97314.80;107561;1287;40384;-76
2021/12/12 06:40:50;;;;;;;16.20;9.20;;;;;;;-1.52;84.06;97316.16;107576;1286;37534;-76
2021/12/12 06:43:21;;;;;;;12.10;7.30;;;;;;;-1.53;84.13;97320.36;107531;1282;47653;-76
2021/12/12 06:45:52;;;;;;;10.70;6.20;;;;;;;-1.51;83.65;97316.52;107608;1287;30512;-76
2021/12/12 06:48:21;;;;;;;10.30;5.50;;;;;;;-1.49;83.64;97314.02;107537;1285;43314;-77
2021/12/12 06:50:53;;;;;;;11.10;5.90;;;;;;;-1.47;83.33;97309.99;107564;1285;36276;-76
2021/12/12 06:53:24;;;;;;;11.10;5.30;;;;;;;-1.45;83.23;97309.70;107535;1285;37852;-76
2021/12/12 06:55:54;;;;;;;9.70;5.90;;;;;;;-1.43;83.10;97311.39;107587;1286;36160;-76
2021/12/12 06:58:25;;;;;;;10.10;5.20;;;;;;;-1.41;83.04;97308.86;107490;1286;52218;-76
2021/12/12 07:01:01;;;;;;;9.50;5.00;;;;;;;-1.40;83.15;97309.77;106130;1282;2081118;-76
2021/12/12 07:03:31;;;;;;;9.80;5.50;;;;;;;-1.38;82.92;97310.46;107533;1285;37552;-76
2021/12/12 07:06:01;;;;;;;9.80;4.80;;;;;;;-1.36;83.00;97311.99;106100;1287;2069960;-76
2021/12/12 07:08:30;;;;;;;;;;;;;;;-1.35;83.01;97306.48;107572;1286;40111;-76
2021/12/12 07:10:59;;;;;;;8.90;4.90;;;;;;;-1.35;82.93;97307.96;107607;1286;32925;-76
2021/12/12 07:13:29;;;;;;;9.20;5.70;;;;;;;-1.35;82.96;97310.64;107659;1287;31630;-77
2021/12/12 07:16:01;;;;;;;8.40;5.10;;;;;;;-1.37;83.01;97310.39;107602;1285;45577;-77
2021/12/12 07:18:33;;;;;;;9.40;5.40;;;;;;;-1.37;83.15;97313.63;107467;1287;45457;-76
2021/12/12 07:21:05;;;;;;;8.60;4.90;;;;;;;-1.37;83.09;97311.35;107501;1286;39106;-76
2021/12/12 07:23:35;;;;;;;8.40;4.90;;;;;;;-1.37;83.08;97313.27;107511;1284;37089;-77
2021/12/12 07:26:07;;;;;;;8.00;5.10;;;;;;;-1.37;83.08;97313.27;107577;1285;40805;-77
2021/12/12 07:28:38;;;;;;;11.10;6.60;;;;;;;-1.38;83.28;97311.10;107562;1284;41421;-77
2021/12/12 07:31:10;;;;;;;11.10;6.30;;;;;;;-1.38;83.16;97308.38;107543;1286;30103;-77
2021/12/12 07:33:41;;;;;;;11.20;7.30;;;;;;;-1.38;83.31;97307.62;107421;1285;174324;-77
2021/12/12 07:36:12;;;;;;;13.70;7.80;;;;;;;-1.39;83.38;97305.59;107552;1286;35433;-77
2021/12/12 07:38:48;;;;;;;15.40;8.50;;;;;;;-1.46;83.53;97304.16;107428;1287;52014;-77
2021/12/12 07:41:20;;;;;;;20.00;10.40;;;;;;;-1.51;83.67;97299.92;107565;1286;30910;-77
2021/12/12 07:43:49;;;;;;;18.60;9.70;;;;;;;-1.54;83.91;97305.63;107516;1286;40583;-76
2021/12/12 07:46:20;;;;;;;20.20;11.30;;;;;;;-1.55;83.71;97304.68;107497;1286;45455;-77
2021/12/12 07:48:52;;;;;;;20.40;10.20;;;;;;;-1.55;83.85;97301.69;107538;1286;34833;-77
2021/12/12 07:51:22;;;;;;;16.20;9.10;;;;;;;-1.54;83.85;97298.83;107518;1286;63750;-76
2021/12/12 07:53:55;;;;;;;20.30;12.30;;;;;;;-1.54;83.93;97302.27;107540;1287;31630;-76
2021/12/12 07:56:27;;;;;;;21.70;12.40;;;;;;;-1.53;84.09;97303.20;107583;1284;38867;-77
2021/12/12 07:58:58;;;;;;;21.20;12.30;;;;;;;-1.52;84.30;97301.48;107636;1286;41050;-77
2021/12/12 08:01:29;;;;;;;19.50;9.90;;;;;;;-1.49;84.34;97306.46;107630;1286;33077;-77
2021/12/12 08:04:00;;;;;;;18.00;9.50;;;;;;;-1.44;84.07;97306.98;107681;1287;42354;-77
2021/12/12 08:06:30;;;;;;;12.90;7.70;;;;;;;-1.35;84.04;97307.13;107650;1286;34857;-76
2021/12/12 08:09:01;;;;;;;16.20;8.70;;;;;;;-1.27;83.74;97307.23;107534;1282;52214;-77
2021/12/12 08:11:33;;;;;;;15.00;7.90;;;;;;;-1.23;83.78;97310.64;107512;1285;82510;-76
2021/12/12 08:14:05;;;;;;;18.70;10.30;;;;;;;-1.18;83.53;97312.23;107516;1286;31314;-76
2021/12/12 08:16:35;;;;;;;17.50;10.00;;;;;;;-1.17;83.75;97312.80;107496;1287;85732;-74
2021/12/12 08:19:04;;;;;;;17.20;9.90;;;;;;;-1.17;83.45;97317.95;107584;1285;42863;-76
2021/12/12 08:21:38;;;;;;;22.30;10.20;;;;;;;-1.14;83.49;97317.23;107531;1286;65874;-75
2021/12/12 08:24:09;;;;;;;20.10;11.00;;;;;;;-1.11;83.72;97317.19;107566;1284;50171;-75
2021/12/12 08:26:44;;;;;;;22.90;11.60;;;;;;;-1.09;83.71;97318.00;107572;1285;32370;-76
2021/12/12 08:29:15;;;;;;;20.00;10.80;;;;;;;-1.06;83.65;97316.86;107566;1287;37686;-75
2021/12/12 08:31:46;;;;;;;18.30;9.70;;;;;;;-1.04;83.49;97317.60;107555;1286;51825;-75
2021/12/12 08:34:16;;;;;;;20.60;11.50;;;;;;;-1.02;83.72;97317.54;107605;1286;72631;-76
2021/12/12 08:36:48;;;;;;;20.80;9.80;;;;;;;-1.01;83.62;97315.27;107562;1286;34310;-75
2021/12/12 08:39:18;;;;;;;21.80;11.40;;;;;;;-0.99;83.41;97313.88;107571;1286;38508;-75
2021/12/12 08:41:49;;;;;;;20.50;12.50;;;;;;;-0.98;83.35;97317.31;107519;1286;39052;-75
2021/12/12 08:44:19;;;;;;;22.20;12.10;;;;;;;-0.97;83.26;97320.73;107564;1285;33523;-76
2021/12/12 08:46:51;;;;;;;24.70;14.20;;;;;;;-0.96;83.05;97322.88;107535;1286;39924;-76
2021/12/12 08:49:24;;;;;;;23.90;13.40;;;;;;;-0.95;83.04;97313.04;107566;1286;33073;-76
2021/12/12 08:51:56;;;;;;;22.30;13.30;;;;;;;-0.96;83.14;97311.68;107509;1284;36212;-76
2021/12/12 08:54:27;;;;;;;21.40;12.10;;;;;;;-0.97;82.96;97307.52;107484;1286;31872;-76
2021/12/12 08:57:02;;;;;;;27.70;14.00;;;;;;;-0.97;83.02;97304.87;107533;1287;31320;-76
2021/12/12 08:59:36;;;;;;;33.00;18.40;;;;;;;-0.95;83.06;97305.76;106416;1286;1531728;-76
2021/12/12 09:02:09;;;;;;;28.60;15.20;;;;;;;-0.93;83.20;97301.52;107584;1286;36278;-76
2021/12/12 09:04:43;;;;;;;31.40;14.30;;;;;;;-0.94;82.92;97305.73;107564;1286;42584;-76
2021/12/12 09:07:16;;;;;;;31.50;16.80;;;;;;;-0.97;82.54;97311.54;107502;1286;44332;-76
2021/12/12 09:09:50;;;;;;;32.70;16.50;;;;;;;-0.99;82.98;97309.35;107355;1287;44671;-76
2021/12/12 09:12:22;;;;;;;33.50;20.20;;;;;;;-1.01;82.73;97312.21;107441;1286;35924;-75
2021/12/12 09:14:54;;;;;;;34.60;19.10;;;;;;;-1.00;83.07;97307.38;107485;1284;33786;-76
2021/12/12 09:17:28;;;;;;;57.10;28.30;;;;;;;-0.98;83.26;97307.70;107447;1286;37775;-75
2021/12/12 09:20:05;;;;;;;53.00;26.60;;;;;;;-0.97;82.90;97303.11;107577;1286;36461;-75
2021/12/12 09:22:40;;;;;;;59.40;26.80;;;;;;;-0.97;83.05;97300.42;107509;1285;30635;-75
2021/12/12 09:25:18;;;;;;;45.60;23.10;;;;;;;-0.96;82.94;97301.02;107498;1285;37067;-75
2021/12/12 09:27:54;;;;;;;31.50;18.60;;;;;;;-0.95;82.70;97298.43;107544;1286;38107;-75
2021/12/12 09:30:26;;;;;;;31.10;17.50;;;;;;;-0.93;82.81;97295.76;107512;1286;40202;-75
2021/12/12 09:33:00;;;;;;;53.90;25.10;;;;;;;-0.91;82.87;97291.48;107518;1287;36102;-75
2021/12/12 09:35:34;;;;;;;54.50;25.70;;;;;;;-0.88;82.96;97289.14;107553;1285;36048;-75
2021/12/12 09:38:10;;;;;;;44.70;20.30;;;;;;;-0.85;82.87;97281.63;107500;1286;43182;-74
2021/12/12 09:41:03;;;;;;;21.00;13.00;;;;;;;-0.82;82.56;97277.95;107539;1286;39467;-75
2021/12/12 09:43:55;;;;;;;24.40;13.60;;;;;;;-0.80;82.81;97277.29;107506;1287;32704;-75
2021/12/12 09:46:58;;;;;;;25.80;14.50;;;;;;;-0.75;82.74;97276.70;107593;1286;30038;-76
2021/12/12 09:53:07;;;;;;;21.60;12.80;;;;;;;-0.64;82.66;97270.73;107397;1285;39480;-76
2021/12/12 09:55:44;;;;;;;20.60;13.10;;;;;;;-0.55;82.71;97268.95;107215;1287;33384;-76
2021/12/12 09:58:23;;;;;;;22.70;12.90;;;;;;;-0.50;82.46;97270.42;107255;1286;41370;-76
2021/12/12 10:01:01;;;;;;;21.30;11.30;;;;;;;-0.46;82.47;97268.42;107308;1286;34817;-76
2021/12/12 10:03:44;;;;;;;20.30;10.60;;;;;;;-0.44;81.90;97265.15;107341;1286;46951;-75
2021/12/12 10:06:17;;;;;;;21.60;13.10;;;;;;;-0.44;81.60;97264.14;107333;1287;37979;-76
2021/12/12 10:09:01;;;;;;;21.30;12.90;;;;;;;-0.48;81.53;97264.05;107279;1286;32742;-76
2021/12/12 10:11:40;;;;;;;18.30;10.80;;;;;;;-0.45;81.38;97267.39;108618;1286;37810;-76
2021/12/12 10:14:24;;;;;;;25.10;14.20;;;;;;;-0.16;81.59;97262.16;107362;1285;35350;-75
2021/12/12 10:17:01;;;;;;;23.50;11.80;;;;;;;0.21;82.10;97260.14;107494;1286;29190;-75
2021/12/12 10:19:40;;;;;;;25.30;13.90;;;;;;;0.66;82.28;97265.13;107422;1286;33656;-75
2021/12/12 10:22:20;;;;;;;21.40;12.50;;;;;;;0.87;81.17;97264.98;107410;1285;31794;-74
2021/12/12 10:24:49;;;;;;;;;;;;;;;0.64;80.01;97269.61;107587;1286;40222;-75
2021/12/12 10:27:25;;;;;;;18.40;11.60;;;;;;;0.52;79.56;97267.63;107472;1287;38706;-74
2021/12/12 10:30:10;;;;;;;26.10;13.90;;;;;;;0.48;79.61;97264.46;107340;1286;34197;-75
2021/12/12 10:32:51;;;;;;;25.00;14.90;;;;;;;0.62;80.21;97269.30;107429;1286;29324;-77
2021/12/12 10:35:25;;;;;;;17.60;10.70;;;;;;;0.68;79.31;97263.39;107350;1287;32554;-75
2021/12/12 10:37:58;;;;;;;21.30;12.30;;;;;;;0.81;79.65;97255.77;107498;1287;38542;-75
2021/12/12 10:40:30;;;;;;;21.70;10.60;;;;;;;0.85;78.84;97252.23;107544;1285;34735;-75
2021/12/12 10:43:04;;;;;;;19.70;11.60;;;;;;;1.01;79.10;97260.73;107160;1285;42643;-75
2021/12/12 10:45:36;;;;;;;19.10;12.20;;;;;;;1.22;78.99;97262.52;107451;1285;33900;-75
2021/12/12 10:48:08;;;;;;;19.10;10.70;;;;;;;1.40;78.51;97256.07;107496;1286;32907;-76
2021/12/12 10:50:47;;;;;;;17.20;9.70;;;;;;;1.47;78.20;97258.10;107469;1285;35259;-75
2021/12/12 10:53:25;;;;;;;16.00;8.70;;;;;;;1.62;77.52;97259.99;107484;1287;38315;-75
2021/12/12 10:56:02;;;;;;;19.20;8.60;;;;;;;1.67;77.05;97267.66;107518;1287;41432;-75
2021/12/12 10:58:40;;;;;;;12.50;6.90;;;;;;;1.68;76.62;97264.73;107509;1287;37853;-75
2021/12/12 11:01:13;;;;;;;15.00;8.50;;;;;;;1.59;76.29;97256.36;107492;1286;39496;-74
2021/12/12 11:03:48;;;;;;;14.30;8.30;;;;;;;1.60;76.45;97257.27;107597;1285;35743;-74
2021/12/12 11:06:24;;;;;;;12.90;7.80;;;;;;;1.62;76.25;97262.13;107505;1284;42618;-75
2021/12/12 11:08:59;;;;;;;15.90;8.40;;;;;;;1.49;75.39;97260.91;107483;1286;37865;-74
2021/12/12 11:11:33;;;;;;;15.10;8.30;;;;;;;1.40;76.09;97264.14;107643;1287;36961;-74
2021/12/12 11:14:12;;;;;;;14.00;7.90;;;;;;;1.41;75.84;97259.48;107524;1287;38375;-75
2021/12/12 11:16:47;;;;;;;15.00;9.00;;;;;;;1.21;75.71;97261.73;107526;1285;36262;-74
2021/12/12 11:19:20;;;;;;;17.80;10.70;;;;;;;1.02;76.00;97265.83;107493;1286;39925;-74
2021/12/12 11:21:58;;;;;;;23.20;12.80;;;;;;;0.88;76.02;97269.93;107541;1286;32447;-74
2021/12/12 11:24:31;;;;;;;20.30;11.50;;;;;;;0.94;76.51;97272.69;107594;1286;39856;-75
2021/12/12 11:27:03;;;;;;;24.00;13.90;;;;;;;1.02;76.41;97264.67;107498;1284;31876;-75
2021/12/12 11:29:38;;;;;;;22.70;13.80;;;;;;;1.12;76.77;97266.02;107442;1286;40922;-75
2021/12/12 11:32:12;;;;;;;24.10;14.20;;;;;;;1.41;77.35;97267.03;107547;1286;32125;-75
2021/12/12 11:34:45;;;;;;;23.00;13.30;;;;;;;1.73;77.45;97267.37;107558;1287;51472;-74
2021/12/12 11:37:18;;;;;;;22.50;14.70;;;;;;;2.07;77.21;97261.81;107498;1287;40038;-74
2021/12/12 11:39:52;;;;;;;26.40;15.20;;;;;;;2.19;76.43;97260.44;107501;1287;30120;-74
2021/12/12 11:42:27;;;;;;;20.90;12.70;;;;;;;2.10;75.83;97261.23;107477;1286;57513;-75
2021/12/12 11:45:10;;;;;;;20.10;12.00;;;;;;;1.93;75.00;97259.14;107552;1284;38276;-74
2021/12/12 11:48:09;;;;;;;24.40;14.70;;;;;;;1.86;75.20;97263.77;107656;1284;43629;-74
2021/12/12 11:50:46;;;;;;;25.00;15.40;;;;;;;2.01;75.81;97255.20;107493;1286;37822;-74
2021/12/12 11:53:21;;;;;;;26.50;15.30;;;;;;;2.15;75.53;97251.60;107514;1286;32762;-74
2021/12/12 11:55:54;;;;;;;27.40;16.40;;;;;;;2.13;75.28;97252.50;107505;1287;34933;-74